Aviation Digital Data Service (ADDS)

Output produced by METARs form (2113 UTC 08 February 2016)
found at http://www.aviationweather.gov/adds/metars/
 
KGED 082054Z AUTO 20004KT 10SM OVC031 06/M01 A2973 RMK AO2 SLP069 T00561006 53009